createdAt,value
2018-07-11T00:01:52.536Z,99.90
2018-07-11T00:04:20.170Z,99.90
2018-07-11T00:06:47.806Z,99.90
2018-07-11T00:09:15.412Z,99.90
2018-07-11T00:11:42.966Z,99.90
2018-07-11T00:14:10.581Z,99.90
2018-07-11T00:16:42.731Z,99.90
2018-07-11T00:19:10.519Z,99.90
2018-07-11T00:21:38.190Z,99.90
2018-07-11T00:24:05.840Z,99.90
2018-07-11T00:26:33.633Z,99.90
2018-07-11T00:29:01.258Z,99.90
2018-07-11T00:33:56.447Z,99.90
2018-07-11T00:36:24.058Z,99.90
2018-07-11T00:38:51.697Z,99.90
2018-07-11T00:41:19.329Z,99.90
2018-07-11T00:43:46.997Z,99.90
2018-07-11T00:46:16.325Z,99.90
2018-07-11T00:48:44.641Z,99.90
2018-07-11T00:51:12.260Z,99.90
2018-07-11T00:53:41.350Z,99.90
2018-07-11T00:56:09.089Z,99.90
2018-07-11T00:58:37.864Z,99.90
2018-07-11T01:01:08.948Z,99.90
2018-07-11T01:03:38.640Z,99.90
2018-07-11T01:06:07.167Z,99.90
2018-07-11T01:08:36.917Z,99.90
2018-07-11T01:11:08.736Z,99.90
2018-07-11T01:13:37.228Z,99.90
2018-07-11T01:16:04.859Z,99.90
2018-07-11T01:21:00.184Z,99.90
2018-07-11T01:23:28.342Z,99.90
2018-07-11T01:25:55.896Z,99.90
2018-07-11T01:28:23.570Z,99.90
2018-07-11T01:30:51.251Z,99.90
2018-07-11T01:33:18.872Z,99.90
2018-07-11T01:35:46.435Z,99.90
2018-07-11T01:38:14.083Z,99.90
2018-07-11T01:40:41.778Z,99.90
2018-07-11T01:45:36.952Z,99.90
2018-07-11T01:48:04.954Z,99.90
2018-07-11T01:50:32.565Z,99.90
2018-07-11T01:53:00.158Z,99.90
2018-07-11T01:55:28.394Z,99.90
2018-07-11T01:57:57.707Z,99.90
2018-07-11T02:00:26.373Z,99.90
2018-07-11T02:02:54.396Z,99.90
2018-07-11T02:05:23.015Z,99.90
2018-07-11T02:07:50.849Z,99.90
2018-07-11T02:10:18.499Z,99.90
2018-07-11T02:12:46.189Z,99.90
2018-07-11T02:15:13.833Z,99.90
2018-07-11T02:17:41.451Z,99.90
2018-07-11T02:20:11.891Z,99.90
2018-07-11T02:22:39.950Z,99.90
2018-07-11T02:25:07.756Z,99.90
2018-07-11T02:27:35.818Z,99.90
2018-07-11T02:30:03.763Z,99.90
2018-07-11T02:32:32.304Z,99.90
2018-07-11T02:37:27.543Z,99.90
2018-07-11T02:39:55.119Z,99.90
2018-07-11T02:42:23.104Z,99.90
2018-07-11T02:44:50.920Z,99.90
2018-07-11T02:47:24.245Z,99.90
2018-07-11T02:49:51.885Z,99.90
2018-07-11T02:52:19.521Z,99.90
2018-07-11T02:54:47.133Z,99.90
2018-07-11T02:57:14.711Z,99.90
2018-07-11T02:59:42.439Z,99.90
2018-07-11T03:02:10.137Z,99.90
2018-07-11T03:04:38.395Z,99.90
2018-07-11T03:07:06.761Z,99.90
2018-07-11T03:12:01.942Z,99.90
2018-07-11T03:14:30.345Z,99.90
2018-07-11T03:16:58.700Z,99.90
2018-07-11T03:19:26.617Z,99.90
2018-07-11T03:21:54.245Z,99.90
2018-07-11T03:24:22.370Z,99.90
2018-07-11T03:26:50.097Z,99.90
2018-07-11T03:29:17.842Z,99.90
2018-07-11T03:31:45.780Z,99.90
2018-07-11T03:34:13.342Z,99.90
2018-07-11T03:36:40.934Z,99.90
2018-07-11T03:39:08.893Z,99.90
2018-07-11T03:41:36.530Z,99.90
2018-07-11T03:44:04.890Z,99.90
2018-07-11T03:46:32.514Z,99.90
2018-07-11T03:49:00.134Z,99.90
2018-07-11T03:51:27.854Z,99.90
2018-07-11T03:53:55.522Z,99.90
2018-07-11T03:56:23.074Z,99.90
2018-07-11T03:58:50.664Z,99.90
2018-07-11T04:01:18.332Z,99.90
2018-07-11T04:03:46.653Z,99.90
2018-07-11T04:06:14.571Z,99.90
2018-07-11T04:08:42.364Z,99.90
2018-07-11T04:11:09.931Z,99.90
2018-07-11T04:13:37.582Z,99.90
2018-07-11T04:16:05.161Z,99.90
2018-07-11T04:18:32.754Z,99.90
2018-07-11T04:21:02.207Z,99.90
2018-07-11T04:23:31.283Z,99.90
2018-07-11T04:25:59.647Z,99.90
2018-07-11T04:28:29.011Z,99.90
2018-07-11T04:30:57.117Z,99.90
2018-07-11T04:33:24.962Z,99.90
2018-07-11T04:35:53.586Z,99.90
2018-07-11T04:38:21.292Z,99.90
2018-07-11T04:40:49.597Z,99.90
2018-07-11T04:43:17.772Z,99.90
2018-07-11T04:45:46.814Z,99.90
2018-07-11T04:48:14.510Z,99.90
2018-07-11T04:50:42.142Z,99.90
2018-07-11T04:53:11.125Z,99.90
2018-07-11T04:55:39.306Z,99.90
2018-07-11T04:58:07.398Z,99.90
2018-07-11T05:00:35.125Z,99.90
2018-07-11T05:03:02.973Z,99.90
2018-07-11T05:05:30.524Z,99.90
2018-07-11T05:07:58.193Z,99.90
2018-07-11T05:10:25.771Z,99.90
2018-07-11T05:12:53.378Z,99.90
2018-07-11T05:15:20.961Z,99.90
2018-07-11T05:17:48.515Z,99.90
2018-07-11T05:20:17.409Z,99.90
2018-07-11T05:22:45.132Z,99.90
2018-07-11T05:25:12.698Z,99.90
2018-07-11T05:27:40.274Z,99.90
2018-07-11T05:30:07.933Z,99.90
2018-07-11T05:32:35.509Z,99.90
2018-07-11T05:35:03.207Z,99.90
2018-07-11T05:39:58.314Z,99.90
2018-07-11T05:42:25.896Z,99.90
2018-07-11T05:44:53.511Z,99.90
2018-07-11T05:47:21.217Z,99.90
2018-07-11T05:49:48.813Z,99.90
2018-07-11T05:52:16.429Z,99.90
2018-07-11T05:54:44.080Z,99.90
2018-07-11T05:57:11.729Z,99.90
2018-07-11T05:59:39.297Z,99.90
2018-07-11T06:02:07.428Z,99.90
2018-07-11T06:04:34.985Z,99.90
2018-07-11T06:07:02.614Z,99.90
2018-07-11T06:09:30.217Z,99.90
2018-07-11T06:11:58.053Z,99.90
2018-07-11T06:14:25.741Z,99.90
2018-07-11T06:16:53.317Z,99.90
2018-07-11T06:19:21.059Z,99.90
2018-07-11T06:21:49.705Z,99.90
2018-07-11T06:24:17.625Z,99.90
2018-07-11T06:26:45.634Z,99.90
2018-07-11T06:29:13.230Z,99.90
2018-07-11T06:31:40.784Z,99.90
2018-07-11T06:34:08.379Z,99.90
2018-07-11T06:36:36.014Z,99.90
2018-07-11T06:39:04.030Z,99.90
2018-07-11T06:41:31.630Z,99.90
2018-07-11T06:43:59.326Z,99.90
2018-07-11T06:46:26.922Z,99.90
2018-07-11T06:48:54.948Z,99.90
2018-07-11T06:51:22.594Z,99.90
2018-07-11T06:53:50.150Z,99.90
2018-07-11T06:56:17.794Z,99.90
2018-07-11T06:58:45.446Z,99.90
2018-07-11T07:03:40.692Z,99.90
2018-07-11T07:06:08.236Z,99.90
2018-07-11T07:08:35.808Z,99.90
2018-07-11T07:11:03.396Z,99.90
2018-07-11T07:13:31.008Z,99.90
2018-07-11T07:15:58.621Z,99.90
2018-07-11T07:18:26.170Z,99.90
2018-07-11T07:20:53.790Z,99.90
2018-07-11T07:23:21.445Z,95.50
2018-07-11T07:25:49.042Z,93.70
2018-07-11T07:28:16.622Z,93.10
2018-07-11T07:30:44.183Z,92.80
2018-07-11T07:33:12.713Z,92.30
2018-07-11T07:35:40.296Z,92.80
2018-07-11T07:38:07.910Z,92.80
2018-07-11T07:40:35.484Z,92.60
2018-07-11T07:43:03.083Z,92.70
2018-07-11T07:45:30.785Z,91.40
2018-07-11T07:48:00.076Z,89.30
2018-07-11T07:50:27.769Z,88.00
2018-07-11T07:55:23.005Z,88.80
2018-07-11T07:57:50.674Z,89.80
2018-07-11T08:00:18.303Z,90.20
2018-07-11T08:02:45.935Z,91.20
2018-07-11T08:05:13.619Z,91.30
2018-07-11T08:07:41.387Z,91.30
2018-07-11T08:10:09.255Z,90.50
2018-07-11T08:12:37.647Z,89.80
2018-07-11T08:15:05.755Z,87.80
2018-07-11T08:17:33.333Z,87.60
2018-07-11T08:20:00.983Z,88.00
2018-07-11T08:23:12.421Z,89.60
2018-07-11T08:25:52.237Z,90.80
2018-07-11T08:28:48.220Z,92.60
2018-07-11T08:31:29.095Z,93.60
2018-07-11T08:34:16.996Z,94.70
2018-07-11T08:37:55.835Z,95.50
2018-07-11T08:40:34.805Z,96.20
2018-07-11T08:43:10.704Z,96.50
2018-07-11T08:50:39.244Z,96.90
2018-07-11T08:56:04.910Z,94.20
2018-07-11T08:58:43.451Z,91.50
2018-07-11T09:01:21.534Z,89.00
2018-07-11T09:04:02.673Z,88.90
2018-07-11T09:06:40.844Z,87.80
2018-07-11T09:09:19.659Z,88.00
2018-07-11T09:14:05.820Z,85.10
2018-07-11T09:19:56.807Z,86.30
2018-07-11T09:22:37.122Z,82.60
2018-07-11T09:25:04.770Z,81.00
2018-07-11T09:27:32.429Z,80.20
2018-07-11T09:30:00.094Z,79.30
2018-07-11T09:32:27.733Z,79.10
2018-07-11T09:34:55.364Z,78.90
2018-07-11T09:37:22.957Z,78.50
2018-07-11T09:39:50.575Z,78.00
2018-07-11T09:42:18.435Z,76.10
2018-07-11T09:44:46.084Z,75.60
2018-07-11T09:47:19.479Z,76.00
2018-07-11T09:49:47.064Z,76.40
2018-07-11T09:52:14.623Z,77.90
2018-07-11T09:54:42.288Z,78.50
2018-07-11T09:57:09.980Z,80.10
2018-07-11T09:59:37.798Z,78.80
2018-07-11T10:02:05.664Z,79.20
2018-07-11T10:04:33.804Z,78.60
2018-07-11T10:07:01.608Z,78.10
2018-07-11T10:09:30.002Z,77.10
2018-07-11T10:11:57.694Z,79.30
2018-07-11T10:14:25.284Z,78.70
2018-07-11T10:16:52.931Z,79.80
2018-07-11T10:19:20.584Z,76.50
2018-07-11T10:24:15.990Z,75.50
2018-07-11T10:26:43.614Z,73.30
2018-07-11T10:29:11.223Z,73.50
2018-07-11T10:31:38.990Z,73.50
2018-07-11T10:34:07.009Z,74.90
2018-07-11T10:36:34.729Z,76.70
2018-07-11T10:39:03.105Z,76.10
2018-07-11T10:41:30.775Z,75.20
2018-07-11T10:46:26.100Z,73.90
2018-07-11T10:48:53.725Z,74.30
2018-07-11T10:51:21.305Z,74.70
2018-07-11T10:53:49.117Z,75.20
2018-07-11T10:56:16.741Z,76.00
2018-07-11T10:58:44.372Z,73.80
2018-07-11T11:01:12.057Z,71.90
2018-07-11T11:03:39.611Z,72.30
2018-07-11T11:06:07.241Z,71.90
2018-07-11T11:08:34.951Z,72.50
2018-07-11T11:11:02.620Z,72.40
2018-07-11T11:13:30.283Z,69.90
2018-07-11T11:15:57.905Z,68.70
2018-07-11T11:18:25.721Z,69.20
2018-07-11T11:20:54.529Z,69.70
2018-07-11T11:23:22.317Z,69.80
2018-07-11T11:25:49.999Z,69.90
2018-07-11T11:28:17.574Z,68.40
2018-07-11T11:30:45.243Z,64.90
2018-07-11T11:33:13.061Z,64.20
2018-07-11T11:35:41.089Z,64.20
2018-07-11T11:38:09.112Z,63.80
2018-07-11T11:40:36.706Z,63.50
2018-07-11T11:43:04.346Z,62.80
2018-07-11T11:45:32.072Z,63.50
2018-07-11T11:48:01.160Z,64.80
2018-07-11T11:50:29.331Z,64.90
2018-07-11T11:52:57.354Z,65.00
2018-07-11T11:55:24.998Z,67.30
2018-07-11T11:57:53.190Z,67.60
2018-07-11T12:00:20.906Z,68.50
2018-07-11T12:02:48.950Z,69.10
2018-07-11T12:05:16.862Z,70.10
2018-07-11T12:07:44.512Z,71.70
2018-07-11T12:10:12.250Z,72.20
2018-07-11T12:12:40.025Z,73.50
2018-07-11T12:15:07.762Z,76.30
2018-07-11T12:17:35.614Z,78.20
2018-07-11T12:20:03.811Z,79.30
2018-07-11T12:22:31.550Z,81.20
2018-07-11T12:24:59.644Z,81.80
2018-07-11T12:27:27.240Z,82.20
2018-07-11T12:29:54.866Z,84.30
2018-07-11T12:32:22.496Z,85.80
2018-07-11T12:34:50.067Z,87.20
2018-07-11T12:37:18.527Z,86.70
2018-07-11T12:39:46.684Z,85.60
2018-07-11T12:42:14.359Z,85.20
2018-07-11T12:44:42.103Z,86.60
2018-07-11T12:47:15.535Z,87.10
2018-07-11T12:49:43.233Z,84.90
2018-07-11T12:52:10.884Z,84.00
2018-07-11T12:54:38.505Z,83.80
2018-07-11T12:57:06.916Z,83.70
2018-07-11T12:59:34.621Z,82.90
2018-07-11T13:02:02.302Z,81.70
2018-07-11T13:04:29.975Z,80.00
2018-07-11T13:06:57.622Z,79.60
2018-07-11T13:09:25.496Z,78.80
2018-07-11T13:11:53.230Z,76.10
2018-07-11T13:14:20.954Z,75.80
2018-07-11T13:16:48.543Z,73.80
2018-07-11T13:19:16.194Z,73.60
2018-07-11T13:21:44.120Z,72.00
2018-07-11T13:24:11.808Z,71.20
2018-07-11T13:26:39.428Z,69.30
2018-07-11T13:29:07.044Z,68.90
2018-07-11T13:31:34.679Z,69.30
2018-07-11T13:34:02.368Z,68.20
2018-07-11T13:36:30.084Z,68.40
2018-07-11T13:38:57.764Z,66.70
2018-07-11T13:41:25.392Z,65.30
2018-07-11T13:46:20.744Z,65.30
2018-07-11T13:48:48.404Z,65.30
2018-07-11T13:51:16.093Z,65.00
2018-07-11T13:53:44.433Z,65.20
2018-07-11T13:56:12.153Z,65.00
2018-07-11T13:58:41.475Z,65.10
2018-07-11T14:01:09.044Z,65.20
2018-07-11T14:03:36.717Z,65.10
2018-07-11T14:06:04.413Z,65.70
2018-07-11T14:08:32.250Z,65.30
2018-07-11T14:11:11.625Z,65.30
2018-07-11T14:17:22.614Z,65.90
2018-07-11T14:19:50.187Z,67.00
2018-07-11T14:22:17.893Z,69.20
2018-07-11T14:24:45.700Z,69.10
2018-07-11T14:27:14.337Z,70.40
2018-07-11T14:29:42.038Z,70.70
2018-07-11T14:32:09.766Z,71.80
2018-07-11T14:34:37.373Z,72.90
2018-07-11T14:37:05.203Z,74.50
2018-07-11T14:39:32.844Z,77.70
2018-07-11T14:42:00.565Z,79.20
2018-07-11T14:44:28.906Z,80.60
2018-07-11T14:46:56.593Z,81.80
2018-07-11T14:49:24.266Z,82.80
2018-07-11T14:51:51.866Z,82.90
2018-07-11T14:54:19.609Z,84.00
2018-07-11T14:56:47.289Z,84.10
2018-07-11T14:59:14.904Z,85.90
2018-07-11T15:01:42.601Z,86.10
2018-07-11T15:07:22.779Z,86.20
2018-07-11T15:09:50.401Z,87.10
2018-07-11T15:12:18.261Z,80.70
2018-07-11T15:14:45.970Z,80.60
2018-07-11T15:17:13.589Z,81.90
2018-07-11T15:19:41.216Z,82.20
2018-07-11T15:22:09.221Z,82.80
2018-07-11T15:24:36.910Z,82.80
2018-07-11T15:27:04.628Z,80.00
2018-07-11T15:29:32.361Z,76.30
2018-07-11T15:32:00.473Z,75.00
2018-07-11T15:34:29.295Z,73.10
2018-07-11T15:36:58.831Z,72.10
2018-07-11T15:39:28.258Z,71.10
2018-07-11T15:41:57.104Z,71.10
2018-07-11T15:44:25.928Z,71.20
2018-07-11T15:46:54.128Z,71.90
2018-07-11T15:49:22.002Z,70.90
2018-07-11T15:51:50.104Z,71.20
2018-07-11T15:54:17.863Z,71.10
2018-07-11T15:56:45.619Z,73.30
2018-07-11T15:59:17.851Z,75.90
2018-07-11T16:01:52.511Z,75.40
2018-07-11T16:04:34.721Z,77.60
2018-07-11T16:07:04.863Z,78.90
2018-07-11T16:10:07.681Z,82.30
2018-07-11T16:15:02.930Z,80.50
2018-07-11T16:17:30.580Z,79.40
2018-07-11T16:19:58.181Z,80.90
2018-07-11T16:22:25.875Z,82.20
2018-07-11T16:24:53.503Z,81.00
2018-07-11T16:27:21.364Z,81.80
2018-07-11T16:29:49.309Z,83.70
2018-07-11T16:32:17.010Z,83.60
2018-07-11T16:34:45.063Z,84.50
2018-07-11T16:37:12.762Z,84.70
2018-07-11T16:39:40.692Z,83.40
2018-07-11T16:42:08.429Z,85.20
2018-07-11T16:44:38.027Z,86.30
2018-07-11T16:47:06.887Z,86.70
2018-07-11T16:49:37.121Z,88.50
2018-07-11T16:52:05.606Z,87.10
2018-07-11T16:54:33.390Z,88.50
2018-07-11T16:57:01.936Z,88.60
2018-07-11T16:59:51.466Z,88.60
2018-07-11T17:02:22.915Z,89.00
2018-07-11T17:04:53.035Z,90.50
2018-07-11T17:07:22.047Z,90.90
2018-07-11T17:09:50.751Z,90.70
2018-07-11T17:12:19.355Z,90.20
2018-07-11T17:14:47.981Z,90.60
2018-07-11T17:17:20.057Z,91.40
2018-07-11T17:19:59.479Z,91.70
2018-07-11T17:22:28.494Z,91.80
2018-07-11T17:25:00.320Z,92.50
2018-07-11T17:27:28.016Z,92.20
2018-07-11T17:29:59.883Z,92.50
2018-07-11T17:32:28.065Z,93.30
2018-07-11T17:34:55.832Z,93.70
2018-07-11T17:37:28.062Z,93.60
2018-07-11T17:40:05.205Z,94.90
2018-07-11T17:45:04.521Z,95.30
2018-07-11T17:47:37.050Z,95.80
2018-07-11T17:50:05.355Z,95.90
2018-07-11T17:53:03.053Z,96.00
2018-07-11T17:55:33.018Z,96.40
2018-07-11T17:58:06.774Z,96.60
2018-07-11T18:00:55.207Z,97.10
2018-07-11T18:06:04.119Z,97.60
2018-07-11T18:08:41.211Z,98.40
2018-07-11T18:11:10.297Z,99.90
2018-07-11T18:13:45.838Z,99.90
2018-07-11T18:16:51.731Z,99.90
2018-07-11T18:19:47.412Z,99.90
2018-07-11T18:22:31.584Z,99.90
2018-07-11T18:25:09.338Z,99.90
2018-07-11T18:27:44.605Z,99.90
2018-07-11T18:30:19.097Z,99.90
2018-07-11T18:33:13.345Z,99.90
2018-07-11T18:37:52.160Z,99.90
2018-07-11T18:40:39.174Z,99.90
2018-07-11T18:43:22.845Z,99.90
2018-07-11T18:46:01.567Z,99.90
2018-07-11T18:48:39.217Z,99.90
2018-07-11T18:51:13.081Z,99.90
2018-07-11T18:53:49.739Z,99.90
2018-07-11T18:56:33.426Z,99.90
2018-07-11T18:59:09.166Z,99.90
2018-07-11T19:01:45.812Z,99.90
2018-07-11T19:04:22.414Z,99.90
2018-07-11T19:07:27.771Z,99.90
2018-07-11T19:09:56.877Z,99.90
2018-07-11T19:12:25.869Z,99.90
2018-07-11T19:15:06.289Z,99.90
2018-07-11T19:18:09.968Z,99.90
2018-07-11T19:20:44.870Z,99.90
2018-07-11T19:23:33.623Z,99.90
2018-07-11T19:26:11.180Z,99.90
2018-07-11T19:31:30.122Z,99.90
2018-07-11T19:34:15.706Z,99.90
2018-07-11T19:36:58.275Z,99.90
2018-07-11T19:40:35.385Z,99.90
2018-07-11T19:43:16.859Z,99.90
2018-07-11T19:45:54.811Z,99.90
2018-07-11T19:48:46.647Z,99.90
2018-07-11T19:53:34.741Z,99.90
2018-07-11T19:56:15.572Z,99.90
2018-07-11T19:58:43.240Z,99.90
2018-07-11T20:01:11.858Z,99.90
2018-07-11T20:03:39.600Z,99.90
2018-07-11T20:06:07.296Z,99.90
2018-07-11T20:08:35.002Z,99.90
2018-07-11T20:11:02.714Z,99.90
2018-07-11T20:13:30.350Z,99.90
2018-07-11T20:18:25.616Z,99.90
2018-07-11T20:20:53.154Z,99.90
2018-07-11T20:23:20.890Z,99.90
2018-07-11T20:25:48.626Z,99.90
2018-07-11T20:28:16.294Z,99.90
2018-07-11T20:30:43.960Z,99.90
2018-07-11T20:33:11.596Z,99.90
2018-07-11T20:35:39.193Z,99.90
2018-07-11T20:38:06.907Z,99.90
2018-07-11T20:40:34.675Z,99.90
2018-07-11T20:43:02.766Z,99.90
2018-07-11T20:45:30.482Z,99.90
2018-07-11T20:47:58.264Z,99.90
2018-07-11T20:50:25.978Z,99.90
2018-07-11T20:52:53.699Z,99.90
2018-07-11T20:55:21.471Z,99.90
2018-07-11T20:57:50.879Z,99.90
2018-07-11T21:01:32.962Z,99.90
2018-07-11T21:05:17.025Z,99.90
2018-07-11T21:09:33.474Z,99.90
2018-07-11T21:14:20.170Z,99.90
2018-07-11T21:16:57.053Z,99.90
2018-07-11T21:19:24.730Z,99.90
2018-07-11T21:21:52.379Z,99.90
2018-07-11T21:24:20.047Z,99.90
2018-07-11T21:26:47.782Z,99.90
2018-07-11T21:29:15.371Z,99.90
2018-07-11T21:31:43.010Z,99.90
2018-07-11T21:34:10.629Z,99.90
2018-07-11T21:36:38.201Z,99.90
2018-07-11T21:39:06.151Z,99.90
2018-07-11T21:41:33.861Z,99.90
2018-07-11T21:44:01.723Z,99.90
2018-07-11T21:46:29.341Z,99.90
2018-07-11T21:48:56.949Z,99.90
2018-07-11T21:51:24.542Z,99.90
2018-07-11T21:53:52.317Z,99.90
2018-07-11T21:56:19.949Z,99.90
2018-07-11T21:58:47.539Z,99.90
2018-07-11T22:01:16.215Z,99.90
2018-07-11T22:03:43.820Z,99.90
2018-07-11T22:06:11.381Z,99.90
2018-07-11T22:08:38.971Z,99.90
2018-07-11T22:11:06.570Z,99.90
2018-07-11T22:13:34.164Z,99.90
2018-07-11T22:16:01.809Z,99.90
2018-07-11T22:18:37.389Z,99.90
2018-07-11T22:21:04.971Z,99.90
2018-07-11T22:23:31.785Z,99.90
2018-07-11T22:25:58.504Z,99.90
2018-07-11T22:28:25.057Z,99.90
2018-07-11T22:30:51.594Z,99.90
2018-07-11T22:33:18.090Z,99.90
2018-07-11T22:35:44.670Z,99.90
2018-07-11T22:38:11.573Z,99.90
2018-07-11T22:40:38.321Z,99.90
2018-07-11T22:43:05.110Z,99.90
2018-07-11T22:45:31.610Z,99.90
2018-07-11T22:47:58.519Z,99.90
2018-07-11T22:50:25.319Z,99.90
2018-07-11T22:52:51.861Z,99.90
2018-07-11T22:55:18.401Z,99.90
2018-07-11T22:57:45.287Z,99.90
2018-07-11T23:00:11.797Z,99.90
2018-07-11T23:02:38.350Z,99.90
2018-07-11T23:05:04.962Z,99.90
2018-07-11T23:07:31.466Z,99.90
2018-07-11T23:12:25.004Z,99.90
2018-07-11T23:14:51.522Z,99.90
2018-07-11T23:17:18.357Z,99.90
2018-07-11T23:22:12.749Z,99.90
2018-07-11T23:27:06.518Z,99.90
2018-07-11T23:29:33.033Z,99.90
2018-07-11T23:31:59.548Z,99.90
2018-07-11T23:34:26.081Z,99.90
2018-07-11T23:36:52.590Z,99.90
2018-07-11T23:39:19.097Z,99.90
2018-07-11T23:41:46.284Z,99.90
2018-07-11T23:44:12.895Z,99.90
2018-07-11T23:46:39.405Z,99.90
2018-07-11T23:49:05.973Z,99.90
2018-07-11T23:51:32.513Z,99.90
2018-07-11T23:53:59.015Z,99.90
2018-07-11T23:56:25.566Z,99.90
2018-07-11T23:58:52.118Z,99.90
